sensor_id;sensor_type;location;lat;lon;timestamp;temperature;humidity
14924;DHT22;7554;43.600;1.480;2023-02-28T00:00:25;3.30;1.00
14924;DHT22;7554;43.600;1.480;2023-02-28T00:02:54;3.30;1.00
14924;DHT22;7554;43.600;1.480;2023-02-28T00:05:23;3.30;1.00
14924;DHT22;7554;43.600;1.480;2023-02-28T00:07:53;3.30;1.00
14924;DHT22;7554;43.600;1.480;2023-02-28T00:10:24;3.30;1.00
14924;DHT22;7554;43.600;1.480;2023-02-28T00:12:53;3.30;1.00
14924;DHT22;7554;43.600;1.480;2023-02-28T00:15:23;3.20;1.00
14924;DHT22;7554;43.600;1.480;2023-02-28T00:17:51;3.30;1.00
14924;DHT22;7554;43.600;1.480;2023-02-28T00:20:19;3.40;1.00
14924;DHT22;7554;43.600;1.480;2023-02-28T00:22:48;3.40;1.00
14924;DHT22;7554;43.600;1.480;2023-02-28T00:25:19;3.20;1.00
14924;DHT22;7554;43.600;1.480;2023-02-28T00:27:48;3.30;1.00
14924;DHT22;7554;43.600;1.480;2023-02-28T00:30:18;3.20;1.00
14924;DHT22;7554;43.600;1.480;2023-02-28T00:32:46;3.20;1.00
14924;DHT22;7554;43.600;1.480;2023-02-28T00:35:13;3.20;1.00
14924;DHT22;7554;43.600;1.480;2023-02-28T00:37:41;3.20;1.00
14924;DHT22;7554;43.600;1.480;2023-02-28T00:40:10;3.20;1.00
14924;DHT22;7554;43.600;1.480;2023-02-28T00:42:42;3.10;1.00
14924;DHT22;7554;43.600;1.480;2023-02-28T00:45:11;3.00;1.00
14924;DHT22;7554;43.600;1.480;2023-02-28T00:47:38;2.90;1.00
14924;DHT22;7554;43.600;1.480;2023-02-28T00:50:07;2.90;1.00
14924;DHT22;7554;43.600;1.480;2023-02-28T00:52:34;2.90;1.00
14924;DHT22;7554;43.600;1.480;2023-02-28T00:55:02;2.90;1.00
14924;DHT22;7554;43.600;1.480;2023-02-28T00:57:29;2.90;1.00
14924;DHT22;7554;43.600;1.480;2023-02-28T00:59:58;2.80;1.00
14924;DHT22;7554;43.600;1.480;2023-02-28T01:02:25;2.80;1.00
14924;DHT22;7554;43.600;1.480;2023-02-28T01:04:53;2.70;1.00
14924;DHT22;7554;43.600;1.480;2023-02-28T01:07:20;2.70;1.00
14924;DHT22;7554;43.600;1.480;2023-02-28T01:09:48;2.80;1.00
14924;DHT22;7554;43.600;1.480;2023-02-28T01:12:15;2.90;1.00
14924;DHT22;7554;43.600;1.480;2023-02-28T01:14:43;2.80;1.00
14924;DHT22;7554;43.600;1.480;2023-02-28T01:17:12;2.90;1.00
14924;DHT22;7554;43.600;1.480;2023-02-28T01:19:40;3.00;1.00
14924;DHT22;7554;43.600;1.480;2023-02-28T01:22:07;3.00;1.00
14924;DHT22;7554;43.600;1.480;2023-02-28T01:24:34;3.00;1.00
14924;DHT22;7554;43.600;1.480;2023-02-28T01:27:02;3.00;1.00
14924;DHT22;7554;43.600;1.480;2023-02-28T01:29:30;2.90;1.00
14924;DHT22;7554;43.600;1.480;2023-02-28T01:31:57;3.00;1.00
14924;DHT22;7554;43.600;1.480;2023-02-28T01:34:26;3.00;1.00
14924;DHT22;7554;43.600;1.480;2023-02-28T01:36:54;3.00;1.00
14924;DHT22;7554;43.600;1.480;2023-02-28T01:39:21;2.90;1.00
14924;DHT22;7554;43.600;1.480;2023-02-28T01:41:49;2.90;1.00
14924;DHT22;7554;43.600;1.480;2023-02-28T01:47:20;2.90;1.00
14924;DHT22;7554;43.600;1.480;2023-02-28T01:49:50;2.90;1.00
14924;DHT22;7554;43.600;1.480;2023-02-28T01:52:18;2.90;1.00
14924;DHT22;7554;43.600;1.480;2023-02-28T01:54:50;2.90;1.00
14924;DHT22;7554;43.600;1.480;2023-02-28T01:57:20;2.90;1.00
14924;DHT22;7554;43.600;1.480;2023-02-28T01:59:53;2.90;1.00
14924;DHT22;7554;43.600;1.480;2023-02-28T02:02:23;2.90;1.00
14924;DHT22;7554;43.600;1.480;2023-02-28T02:04:55;2.90;1.00
14924;DHT22;7554;43.600;1.480;2023-02-28T02:07:24;2.90;1.00
14924;DHT22;7554;43.600;1.480;2023-02-28T02:10:00;2.90;1.00
14924;DHT22;7554;43.600;1.480;2023-02-28T02:12:47;2.90;1.00
14924;DHT22;7554;43.600;1.480;2023-02-28T02:15:24;3.00;1.00
14924;DHT22;7554;43.600;1.480;2023-02-28T02:17:57;3.00;1.00
14924;DHT22;7554;43.600;1.480;2023-02-28T02:24:04;3.00;1.00
14924;DHT22;7554;43.600;1.480;2023-02-28T02:26:58;3.00;1.00
14924;DHT22;7554;43.600;1.480;2023-02-28T02:29:53;3.00;1.00
14924;DHT22;7554;43.600;1.480;2023-02-28T02:32:47;3.00;1.00
14924;DHT22;7554;43.600;1.480;2023-02-28T02:35:23;3.00;1.00
14924;DHT22;7554;43.600;1.480;2023-02-28T02:37:56;3.00;1.00
14924;DHT22;7554;43.600;1.480;2023-02-28T02:40:32;3.00;1.00
14924;DHT22;7554;43.600;1.480;2023-02-28T02:43:03;3.00;1.00
14924;DHT22;7554;43.600;1.480;2023-02-28T02:45:36;3.00;1.00
14924;DHT22;7554;43.600;1.480;2023-02-28T02:48:08;3.00;1.00
14924;DHT22;7554;43.600;1.480;2023-02-28T02:50:42;3.00;1.00
14924;DHT22;7554;43.600;1.480;2023-02-28T02:53:12;3.00;1.00
14924;DHT22;7554;43.600;1.480;2023-02-28T02:55:44;2.90;1.00
14924;DHT22;7554;43.600;1.480;2023-02-28T02:58:15;2.80;1.00
14924;DHT22;7554;43.600;1.480;2023-02-28T03:00:47;2.90;1.00
14924;DHT22;7554;43.600;1.480;2023-02-28T03:03:18;2.90;1.00
14924;DHT22;7554;43.600;1.480;2023-02-28T03:05:57;2.90;1.00
14924;DHT22;7554;43.600;1.480;2023-02-28T03:08:25;2.90;1.00
14924;DHT22;7554;43.600;1.480;2023-02-28T03:10:56;2.80;1.00
14924;DHT22;7554;43.600;1.480;2023-02-28T03:13:44;2.90;1.00
14924;DHT22;7554;43.600;1.480;2023-02-28T03:19:32;2.80;1.00
14924;DHT22;7554;43.600;1.480;2023-02-28T03:22:14;2.80;1.00
14924;DHT22;7554;43.600;1.480;2023-02-28T03:24:48;2.70;1.00
14924;DHT22;7554;43.600;1.480;2023-02-28T03:27:23;2.60;1.00
14924;DHT22;7554;43.600;1.480;2023-02-28T03:29:58;2.60;1.00
14924;DHT22;7554;43.600;1.480;2023-02-28T03:32:32;2.60;1.00
14924;DHT22;7554;43.600;1.480;2023-02-28T03:35:05;2.60;1.00
14924;DHT22;7554;43.600;1.480;2023-02-28T03:37:38;2.50;1.00
14924;DHT22;7554;43.600;1.480;2023-02-28T03:40:09;2.50;1.00
14924;DHT22;7554;43.600;1.480;2023-02-28T03:42:41;2.50;1.00
14924;DHT22;7554;43.600;1.480;2023-02-28T03:45:12;2.50;1.00
14924;DHT22;7554;43.600;1.480;2023-02-28T03:47:46;2.50;1.00
14924;DHT22;7554;43.600;1.480;2023-02-28T03:50:20;2.60;1.00
14924;DHT22;7554;43.600;1.480;2023-02-28T03:52:55;2.50;1.00
14924;DHT22;7554;43.600;1.480;2023-02-28T03:55:28;2.50;1.00
14924;DHT22;7554;43.600;1.480;2023-02-28T03:58:01;2.50;1.00
14924;DHT22;7554;43.600;1.480;2023-02-28T04:00:35;2.60;1.00
14924;DHT22;7554;43.600;1.480;2023-02-28T04:03:04;2.60;1.00
14924;DHT22;7554;43.600;1.480;2023-02-28T04:05:32;2.50;1.00
14924;DHT22;7554;43.600;1.480;2023-02-28T04:08:06;2.50;1.00
14924;DHT22;7554;43.600;1.480;2023-02-28T04:10:34;2.40;1.00
14924;DHT22;7554;43.600;1.480;2023-02-28T04:13:01;2.40;1.00
14924;DHT22;7554;43.600;1.480;2023-02-28T04:15:29;2.40;1.00
14924;DHT22;7554;43.600;1.480;2023-02-28T04:17:57;2.40;1.00
14924;DHT22;7554;43.600;1.480;2023-02-28T04:20:25;2.50;1.00
14924;DHT22;7554;43.600;1.480;2023-02-28T04:22:52;2.50;1.00
14924;DHT22;7554;43.600;1.480;2023-02-28T04:25:21;2.50;1.00
14924;DHT22;7554;43.600;1.480;2023-02-28T04:27:48;2.50;1.00
14924;DHT22;7554;43.600;1.480;2023-02-28T04:30:16;2.50;1.00
14924;DHT22;7554;43.600;1.480;2023-02-28T04:32:44;2.50;1.00
14924;DHT22;7554;43.600;1.480;2023-02-28T04:35:11;2.50;1.00
14924;DHT22;7554;43.600;1.480;2023-02-28T04:37:38;2.50;1.00
14924;DHT22;7554;43.600;1.480;2023-02-28T04:40:07;2.40;1.00
14924;DHT22;7554;43.600;1.480;2023-02-28T04:42:36;2.40;1.00
14924;DHT22;7554;43.600;1.480;2023-02-28T04:45:04;2.40;1.00
14924;DHT22;7554;43.600;1.480;2023-02-28T04:47:32;2.50;1.00
14924;DHT22;7554;43.600;1.480;2023-02-28T04:49:59;2.50;1.00
14924;DHT22;7554;43.600;1.480;2023-02-28T04:52:27;2.50;1.00
14924;DHT22;7554;43.600;1.480;2023-02-28T04:54:55;2.50;1.00
14924;DHT22;7554;43.600;1.480;2023-02-28T04:57:22;2.40;1.00
14924;DHT22;7554;43.600;1.480;2023-02-28T04:59:51;2.30;1.00
14924;DHT22;7554;43.600;1.480;2023-02-28T05:02:18;2.10;1.00
14924;DHT22;7554;43.600;1.480;2023-02-28T05:04:46;2.10;1.00
14924;DHT22;7554;43.600;1.480;2023-02-28T05:07:14;2.00;1.00
14924;DHT22;7554;43.600;1.480;2023-02-28T05:09:41;1.90;1.00
14924;DHT22;7554;43.600;1.480;2023-02-28T05:12:09;1.90;1.00
14924;DHT22;7554;43.600;1.480;2023-02-28T05:14:36;1.90;1.00
14924;DHT22;7554;43.600;1.480;2023-02-28T05:17:05;1.80;1.00
14924;DHT22;7554;43.600;1.480;2023-02-28T05:19:32;1.80;1.00
14924;DHT22;7554;43.600;1.480;2023-02-28T05:22:00;1.80;1.00
14924;DHT22;7554;43.600;1.480;2023-02-28T05:24:28;1.70;1.00
14924;DHT22;7554;43.600;1.480;2023-02-28T05:26:55;1.70;1.00
14924;DHT22;7554;43.600;1.480;2023-02-28T05:29:23;1.70;1.00
14924;DHT22;7554;43.600;1.480;2023-02-28T05:31:51;1.70;1.00
14924;DHT22;7554;43.600;1.480;2023-02-28T05:34:20;1.70;1.00
14924;DHT22;7554;43.600;1.480;2023-02-28T05:36:47;1.60;1.00
14924;DHT22;7554;43.600;1.480;2023-02-28T05:39:14;1.60;1.00
14924;DHT22;7554;43.600;1.480;2023-02-28T05:41:42;1.50;1.00
14924;DHT22;7554;43.600;1.480;2023-02-28T05:44:10;1.50;1.00
14924;DHT22;7554;43.600;1.480;2023-02-28T05:46:38;1.50;1.00
14924;DHT22;7554;43.600;1.480;2023-02-28T05:49:05;1.50;1.00
14924;DHT22;7554;43.600;1.480;2023-02-28T05:51:34;1.50;1.00
14924;DHT22;7554;43.600;1.480;2023-02-28T05:54:05;1.40;1.00
14924;DHT22;7554;43.600;1.480;2023-02-28T05:56:33;1.40;1.00
14924;DHT22;7554;43.600;1.480;2023-02-28T05:59:01;1.30;1.00
14924;DHT22;7554;43.600;1.480;2023-02-28T06:01:33;1.30;1.00
14924;DHT22;7554;43.600;1.480;2023-02-28T06:04:02;1.30;1.00
14924;DHT22;7554;43.600;1.480;2023-02-28T06:06:30;1.20;1.00
14924;DHT22;7554;43.600;1.480;2023-02-28T06:09:01;1.20;1.00
14924;DHT22;7554;43.600;1.480;2023-02-28T06:11:28;1.20;1.00
14924;DHT22;7554;43.600;1.480;2023-02-28T06:13:57;1.30;1.00
14924;DHT22;7554;43.600;1.480;2023-02-28T06:16:25;1.30;1.00
14924;DHT22;7554;43.600;1.480;2023-02-28T06:18:53;1.30;1.00
14924;DHT22;7554;43.600;1.480;2023-02-28T06:21:22;1.30;1.00
14924;DHT22;7554;43.600;1.480;2023-02-28T06:23:50;1.20;1.00
14924;DHT22;7554;43.600;1.480;2023-02-28T06:26:19;1.20;1.00
14924;DHT22;7554;43.600;1.480;2023-02-28T06:28:46;1.20;1.00
14924;DHT22;7554;43.600;1.480;2023-02-28T06:31:15;1.20;1.00
14924;DHT22;7554;43.600;1.480;2023-02-28T06:33:44;1.20;1.00
14924;DHT22;7554;43.600;1.480;2023-02-28T06:36:15;1.20;1.00
14924;DHT22;7554;43.600;1.480;2023-02-28T06:38:43;1.20;1.00
14924;DHT22;7554;43.600;1.480;2023-02-28T06:41:11;1.30;1.00
14924;DHT22;7554;43.600;1.480;2023-02-28T06:43:42;1.30;1.00
14924;DHT22;7554;43.600;1.480;2023-02-28T06:46:13;1.40;1.00
14924;DHT22;7554;43.600;1.480;2023-02-28T06:48:40;1.90;1.00
14924;DHT22;7554;43.600;1.480;2023-02-28T06:51:10;2.90;1.00
14924;DHT22;7554;43.600;1.480;2023-02-28T06:53:39;3.60;1.00
14924;DHT22;7554;43.600;1.480;2023-02-28T06:56:08;4.50;1.00
14924;DHT22;7554;43.600;1.480;2023-02-28T06:58:36;5.40;1.00
14924;DHT22;7554;43.600;1.480;2023-02-28T07:01:06;6.30;1.00
14924;DHT22;7554;43.600;1.480;2023-02-28T07:03:35;6.80;1.00
14924;DHT22;7554;43.600;1.480;2023-02-28T07:06:05;4.80;1.00
14924;DHT22;7554;43.600;1.480;2023-02-28T07:08:33;3.80;1.00
14924;DHT22;7554;43.600;1.480;2023-02-28T07:11:02;3.20;1.00
14924;DHT22;7554;43.600;1.480;2023-02-28T07:13:29;3.10;1.00
14924;DHT22;7554;43.600;1.480;2023-02-28T07:15:58;3.60;1.00
14924;DHT22;7554;43.600;1.480;2023-02-28T07:18:27;7.10;1.00
14924;DHT22;7554;43.600;1.480;2023-02-28T07:20:55;8.60;1.00
14924;DHT22;7554;43.600;1.480;2023-02-28T07:23:22;7.30;1.00
14924;DHT22;7554;43.600;1.480;2023-02-28T07:25:50;8.20;1.00
14924;DHT22;7554;43.600;1.480;2023-02-28T07:28:18;9.40;1.00
14924;DHT22;7554;43.600;1.480;2023-02-28T07:30:45;10.10;1.00
14924;DHT22;7554;43.600;1.480;2023-02-28T07:33:14;10.90;1.00
14924;DHT22;7554;43.600;1.480;2023-02-28T07:35:43;11.20;1.00
14924;DHT22;7554;43.600;1.480;2023-02-28T07:38:11;11.50;1.00
14924;DHT22;7554;43.600;1.480;2023-02-28T07:40:39;12.10;1.00
14924;DHT22;7554;43.600;1.480;2023-02-28T07:43:07;12.50;1.00
14924;DHT22;7554;43.600;1.480;2023-02-28T07:45:34;12.70;1.00
14924;DHT22;7554;43.600;1.480;2023-02-28T07:48:02;12.90;1.00
14924;DHT22;7554;43.600;1.480;2023-02-28T07:50:29;13.50;1.00
14924;DHT22;7554;43.600;1.480;2023-02-28T07:52:58;13.70;1.00
14924;DHT22;7554;43.600;1.480;2023-02-28T07:55:26;13.80;1.00
14924;DHT22;7554;43.600;1.480;2023-02-28T07:57:53;14.30;1.00
14924;DHT22;7554;43.600;1.480;2023-02-28T08:00:22;14.60;1.00
14924;DHT22;7554;43.600;1.480;2023-02-28T08:02:49;14.70;1.00
14924;DHT22;7554;43.600;1.480;2023-02-28T08:05:17;14.90;1.00
14924;DHT22;7554;43.600;1.480;2023-02-28T08:07:44;15.10;1.00
14924;DHT22;7554;43.600;1.480;2023-02-28T08:10:15;15.10;1.00
14924;DHT22;7554;43.600;1.480;2023-02-28T08:12:42;15.10;1.00
14924;DHT22;7554;43.600;1.480;2023-02-28T08:15:10;15.80;1.00
14924;DHT22;7554;43.600;1.480;2023-02-28T08:17:38;16.30;1.00
14924;DHT22;7554;43.600;1.480;2023-02-28T08:20:06;16.60;1.00
14924;DHT22;7554;43.600;1.480;2023-02-28T08:22:34;16.80;1.00
14924;DHT22;7554;43.600;1.480;2023-02-28T08:25:02;15.90;1.00
14924;DHT22;7554;43.600;1.480;2023-02-28T08:27:31;15.60;1.00
14924;DHT22;7554;43.600;1.480;2023-02-28T08:29:58;15.30;1.00
14924;DHT22;7554;43.600;1.480;2023-02-28T08:32:26;15.00;1.00
14924;DHT22;7554;43.600;1.480;2023-02-28T08:34:53;14.50;1.00
14924;DHT22;7554;43.600;1.480;2023-02-28T08:37:20;14.20;1.00
14924;DHT22;7554;43.600;1.480;2023-02-28T08:39:48;12.00;1.00
14924;DHT22;7554;43.600;1.480;2023-02-28T08:42:15;10.50;1.00
14924;DHT22;7554;43.600;1.480;2023-02-28T08:44:44;9.60;1.00
14924;DHT22;7554;43.600;1.480;2023-02-28T08:47:11;9.20;1.00
14924;DHT22;7554;43.600;1.480;2023-02-28T08:49:39;8.80;1.00
14924;DHT22;7554;43.600;1.480;2023-02-28T08:52:06;8.50;1.00
14924;DHT22;7554;43.600;1.480;2023-02-28T08:54:35;8.60;1.00
14924;DHT22;7554;43.600;1.480;2023-02-28T08:57:03;8.30;1.00
14924;DHT22;7554;43.600;1.480;2023-02-28T08:59:31;8.40;1.00
14924;DHT22;7554;43.600;1.480;2023-02-28T09:02:00;8.70;1.00
14924;DHT22;7554;43.600;1.480;2023-02-28T09:04:27;9.00;1.00
14924;DHT22;7554;43.600;1.480;2023-02-28T09:06:56;9.00;1.00
14924;DHT22;7554;43.600;1.480;2023-02-28T09:09:24;8.90;1.00
14924;DHT22;7554;43.600;1.480;2023-02-28T09:11:51;8.90;1.00
14924;DHT22;7554;43.600;1.480;2023-02-28T09:14:18;8.80;1.00
14924;DHT22;7554;43.600;1.480;2023-02-28T09:16:46;8.50;1.00
14924;DHT22;7554;43.600;1.480;2023-02-28T09:19:15;8.40;1.00
14924;DHT22;7554;43.600;1.480;2023-02-28T09:21:42;8.20;1.00
14924;DHT22;7554;43.600;1.480;2023-02-28T09:24:09;8.30;1.00
14924;DHT22;7554;43.600;1.480;2023-02-28T09:26:40;8.20;1.00
14924;DHT22;7554;43.600;1.480;2023-02-28T09:29:07;8.00;1.00
14924;DHT22;7554;43.600;1.480;2023-02-28T09:31:35;8.00;1.00
14924;DHT22;7554;43.600;1.480;2023-02-28T09:34:03;7.90;1.00
14924;DHT22;7554;43.600;1.480;2023-02-28T09:36:32;8.20;1.00
14924;DHT22;7554;43.600;1.480;2023-02-28T09:39:00;8.50;1.00
14924;DHT22;7554;43.600;1.480;2023-02-28T09:41:31;8.60;1.00
14924;DHT22;7554;43.600;1.480;2023-02-28T09:44:02;8.30;1.00
14924;DHT22;7554;43.600;1.480;2023-02-28T09:46:33;8.10;1.00
14924;DHT22;7554;43.600;1.480;2023-02-28T09:49:05;8.20;1.00
14924;DHT22;7554;43.600;1.480;2023-02-28T09:51:42;8.00;1.00
14924;DHT22;7554;43.600;1.480;2023-02-28T09:54:14;8.20;1.00
14924;DHT22;7554;43.600;1.480;2023-02-28T09:56:48;8.30;1.00
14924;DHT22;7554;43.600;1.480;2023-02-28T09:59:29;8.20;1.00
14924;DHT22;7554;43.600;1.480;2023-02-28T10:02:04;8.40;1.00
14924;DHT22;7554;43.600;1.480;2023-02-28T10:04:43;8.60;1.00
14924;DHT22;7554;43.600;1.480;2023-02-28T10:07:25;8.70;1.00
14924;DHT22;7554;43.600;1.480;2023-02-28T10:10:01;8.20;1.00
14924;DHT22;7554;43.600;1.480;2023-02-28T10:12:30;8.30;1.00
14924;DHT22;7554;43.600;1.480;2023-02-28T10:14:59;8.40;1.00
14924;DHT22;7554;43.600;1.480;2023-02-28T10:17:34;8.20;1.00
14924;DHT22;7554;43.600;1.480;2023-02-28T10:20:09;8.30;1.00
14924;DHT22;7554;43.600;1.480;2023-02-28T10:22:49;8.10;1.00
14924;DHT22;7554;43.600;1.480;2023-02-28T10:25:20;7.60;1.00
14924;DHT22;7554;43.600;1.480;2023-02-28T10:27:48;7.40;1.00
14924;DHT22;7554;43.600;1.480;2023-02-28T10:30:16;7.60;1.00
14924;DHT22;7554;43.600;1.480;2023-02-28T10:32:49;7.70;1.00
14924;DHT22;7554;43.600;1.480;2023-02-28T10:35:20;8.00;1.00
14924;DHT22;7554;43.600;1.480;2023-02-28T10:37:50;8.40;1.00
14924;DHT22;7554;43.600;1.480;2023-02-28T10:40:30;8.30;1.00
14924;DHT22;7554;43.600;1.480;2023-02-28T10:43:00;8.50;1.00
14924;DHT22;7554;43.600;1.480;2023-02-28T10:45:29;8.60;1.00
14924;DHT22;7554;43.600;1.480;2023-02-28T10:47:59;8.20;1.00
14924;DHT22;7554;43.600;1.480;2023-02-28T10:50:30;8.10;1.00
14924;DHT22;7554;43.600;1.480;2023-02-28T10:53:24;8.10;1.00
14924;DHT22;7554;43.600;1.480;2023-02-28T10:56:00;8.10;1.00
14924;DHT22;7554;43.600;1.480;2023-02-28T10:58:30;8.20;1.00
14924;DHT22;7554;43.600;1.480;2023-02-28T11:00:59;8.20;1.00
14924;DHT22;7554;43.600;1.480;2023-02-28T11:03:31;8.60;1.00
14924;DHT22;7554;43.600;1.480;2023-02-28T11:06:06;8.70;1.00
14924;DHT22;7554;43.600;1.480;2023-02-28T11:08:44;8.50;1.00
14924;DHT22;7554;43.600;1.480;2023-02-28T11:11:12;8.60;1.00
14924;DHT22;7554;43.600;1.480;2023-02-28T11:13:40;8.50;1.00
14924;DHT22;7554;43.600;1.480;2023-02-28T11:16:10;8.60;1.00
14924;DHT22;7554;43.600;1.480;2023-02-28T11:18:41;8.50;1.00
14924;DHT22;7554;43.600;1.480;2023-02-28T11:21:16;8.80;1.00
14924;DHT22;7554;43.600;1.480;2023-02-28T11:23:47;9.00;1.00
14924;DHT22;7554;43.600;1.480;2023-02-28T11:26:40;8.70;1.00
14924;DHT22;7554;43.600;1.480;2023-02-28T11:29:27;8.70;1.00
14924;DHT22;7554;43.600;1.480;2023-02-28T11:32:07;8.60;1.00
14924;DHT22;7554;43.600;1.480;2023-02-28T11:34:39;8.80;1.00
14924;DHT22;7554;43.600;1.480;2023-02-28T11:37:12;8.80;1.00
14924;DHT22;7554;43.600;1.480;2023-02-28T11:39:41;8.70;1.00
14924;DHT22;7554;43.600;1.480;2023-02-28T11:42:26;9.00;1.00
14924;DHT22;7554;43.600;1.480;2023-02-28T11:45:08;8.90;1.00
14924;DHT22;7554;43.600;1.480;2023-02-28T11:47:44;8.50;1.00
14924;DHT22;7554;43.600;1.480;2023-02-28T11:50:26;8.20;1.00
14924;DHT22;7554;43.600;1.480;2023-02-28T11:52:56;8.50;1.00
14924;DHT22;7554;43.600;1.480;2023-02-28T11:55:27;8.80;1.00
14924;DHT22;7554;43.600;1.480;2023-02-28T12:01:26;9.10;1.00
14924;DHT22;7554;43.600;1.480;2023-02-28T12:04:04;9.20;1.00
14924;DHT22;7554;43.600;1.480;2023-02-28T12:06:45;9.10;1.00
14924;DHT22;7554;43.600;1.480;2023-02-28T12:09:27;9.10;1.00
14924;DHT22;7554;43.600;1.480;2023-02-28T12:12:05;9.00;1.00
14924;DHT22;7554;43.600;1.480;2023-02-28T12:14:54;8.60;1.00
14924;DHT22;7554;43.600;1.480;2023-02-28T12:17:36;8.40;1.00
14924;DHT22;7554;43.600;1.480;2023-02-28T12:20:12;8.30;1.00
14924;DHT22;7554;43.600;1.480;2023-02-28T12:22:49;8.50;1.00
14924;DHT22;7554;43.600;1.480;2023-02-28T12:25:38;8.90;1.00
14924;DHT22;7554;43.600;1.480;2023-02-28T12:28:13;8.70;1.00
14924;DHT22;7554;43.600;1.480;2023-02-28T12:30:49;8.80;1.00
14924;DHT22;7554;43.600;1.480;2023-02-28T12:33:22;8.40;1.00
14924;DHT22;7554;43.600;1.480;2023-02-28T12:35:54;8.10;1.00
14924;DHT22;7554;43.600;1.480;2023-02-28T12:38:24;7.90;1.00
14924;DHT22;7554;43.600;1.480;2023-02-28T12:40:56;8.20;1.00
14924;DHT22;7554;43.600;1.480;2023-02-28T12:43:32;8.30;1.00
14924;DHT22;7554;43.600;1.480;2023-02-28T12:46:02;8.60;1.00
14924;DHT22;7554;43.600;1.480;2023-02-28T12:48:40;8.40;1.00
14924;DHT22;7554;43.600;1.480;2023-02-28T12:51:08;8.40;1.00
14924;DHT22;7554;43.600;1.480;2023-02-28T12:53:48;8.40;1.00
14924;DHT22;7554;43.600;1.480;2023-02-28T12:56:21;8.60;1.00
14924;DHT22;7554;43.600;1.480;2023-02-28T12:58:56;8.70;1.00
14924;DHT22;7554;43.600;1.480;2023-02-28T13:01:48;8.90;1.00
14924;DHT22;7554;43.600;1.480;2023-02-28T13:10:24;8.60;1.00
14924;DHT22;7554;43.600;1.480;2023-02-28T13:12:54;8.50;1.00
14924;DHT22;7554;43.600;1.480;2023-02-28T13:15:26;8.60;1.00
14924;DHT22;7554;43.600;1.480;2023-02-28T13:17:56;8.70;1.00
14924;DHT22;7554;43.600;1.480;2023-02-28T13:20:25;8.80;1.00
14924;DHT22;7554;43.600;1.480;2023-02-28T13:22:55;8.70;1.00
14924;DHT22;7554;43.600;1.480;2023-02-28T13:25:50;8.70;1.00
14924;DHT22;7554;43.600;1.480;2023-02-28T13:34:42;8.20;1.00
14924;DHT22;7554;43.600;1.480;2023-02-28T13:37:36;8.30;1.00
14924;DHT22;7554;43.600;1.480;2023-02-28T13:40:28;8.50;1.00
14924;DHT22;7554;43.600;1.480;2023-02-28T13:42:56;8.70;1.00
14924;DHT22;7554;43.600;1.480;2023-02-28T13:45:26;8.60;1.00
14924;DHT22;7554;43.600;1.480;2023-02-28T13:48:00;8.60;1.00
14924;DHT22;7554;43.600;1.480;2023-02-28T13:50:33;8.60;1.00
14924;DHT22;7554;43.600;1.480;2023-02-28T13:53:32;8.80;1.00
14924;DHT22;7554;43.600;1.480;2023-02-28T13:56:05;9.00;1.00
14924;DHT22;7554;43.600;1.480;2023-02-28T13:58:45;8.60;1.00
14924;DHT22;7554;43.600;1.480;2023-02-28T14:01:31;8.80;1.00
14924;DHT22;7554;43.600;1.480;2023-02-28T14:04:19;9.00;1.00
14924;DHT22;7554;43.600;1.480;2023-02-28T14:06:54;9.20;1.00
14924;DHT22;7554;43.600;1.480;2023-02-28T14:09:25;9.20;1.00
14924;DHT22;7554;43.600;1.480;2023-02-28T14:11:54;8.80;1.00
14924;DHT22;7554;43.600;1.480;2023-02-28T14:14:53;8.70;1.00
14924;DHT22;7554;43.600;1.480;2023-02-28T14:17:21;8.50;1.00
14924;DHT22;7554;43.600;1.480;2023-02-28T14:19:50;8.70;1.00
14924;DHT22;7554;43.600;1.480;2023-02-28T14:22:43;8.50;1.00
14924;DHT22;7554;43.600;1.480;2023-02-28T14:25:23;8.30;1.00
14924;DHT22;7554;43.600;1.480;2023-02-28T14:28:04;8.20;1.00
14924;DHT22;7554;43.600;1.480;2023-02-28T14:30:52;8.40;1.00
14924;DHT22;7554;43.600;1.480;2023-02-28T14:33:31;8.20;1.00
14924;DHT22;7554;43.600;1.480;2023-02-28T14:36:10;8.10;1.00
14924;DHT22;7554;43.600;1.480;2023-02-28T14:38:44;8.40;1.00
14924;DHT22;7554;43.600;1.480;2023-02-28T14:41:24;8.60;1.00
14924;DHT22;7554;43.600;1.480;2023-02-28T14:43:54;8.40;1.00
14924;DHT22;7554;43.600;1.480;2023-02-28T14:46:23;8.00;1.00
14924;DHT22;7554;43.600;1.480;2023-02-28T14:48:53;7.80;1.00
14924;DHT22;7554;43.600;1.480;2023-02-28T14:51:22;7.90;1.00
14924;DHT22;7554;43.600;1.480;2023-02-28T14:53:56;7.80;1.00
14924;DHT22;7554;43.600;1.480;2023-02-28T14:56:26;7.80;1.00
14924;DHT22;7554;43.600;1.480;2023-02-28T14:58:56;8.00;1.00
14924;DHT22;7554;43.600;1.480;2023-02-28T15:01:25;7.80;1.00
14924;DHT22;7554;43.600;1.480;2023-02-28T15:04:03;7.60;1.00
14924;DHT22;7554;43.600;1.480;2023-02-28T15:06:32;7.50;1.00
14924;DHT22;7554;43.600;1.480;2023-02-28T15:09:14;7.70;1.00
14924;DHT22;7554;43.600;1.480;2023-02-28T15:11:46;7.60;1.00
14924;DHT22;7554;43.600;1.480;2023-02-28T15:14:17;7.70;1.00
14924;DHT22;7554;43.600;1.480;2023-02-28T15:16:48;7.70;1.00
14924;DHT22;7554;43.600;1.480;2023-02-28T15:19:21;7.60;1.00
14924;DHT22;7554;43.600;1.480;2023-02-28T15:21:52;7.50;1.00
14924;DHT22;7554;43.600;1.480;2023-02-28T15:24:29;7.70;1.00
14924;DHT22;7554;43.600;1.480;2023-02-28T15:27:00;7.80;1.00
14924;DHT22;7554;43.600;1.480;2023-02-28T15:29:29;7.70;1.00
14924;DHT22;7554;43.600;1.480;2023-02-28T15:32:01;7.60;1.00
14924;DHT22;7554;43.600;1.480;2023-02-28T15:34:34;7.40;1.00
14924;DHT22;7554;43.600;1.480;2023-02-28T15:37:06;7.30;1.00
14924;DHT22;7554;43.600;1.480;2023-02-28T15:39:42;7.40;1.00
14924;DHT22;7554;43.600;1.480;2023-02-28T15:42:11;7.50;1.00
14924;DHT22;7554;43.600;1.480;2023-02-28T15:44:38;7.60;1.00
14924;DHT22;7554;43.600;1.480;2023-02-28T15:47:14;7.50;1.00
14924;DHT22;7554;43.600;1.480;2023-02-28T15:49:47;7.30;1.00
14924;DHT22;7554;43.600;1.480;2023-02-28T15:52:19;7.40;1.00
14924;DHT22;7554;43.600;1.480;2023-02-28T15:54:48;7.20;1.00
14924;DHT22;7554;43.600;1.480;2023-02-28T15:57:20;7.30;1.00
14924;DHT22;7554;43.600;1.480;2023-02-28T15:59:52;7.20;1.00
14924;DHT22;7554;43.600;1.480;2023-02-28T16:02:22;7.30;1.00
14924;DHT22;7554;43.600;1.480;2023-02-28T16:05:12;7.40;1.00
14924;DHT22;7554;43.600;1.480;2023-02-28T16:07:44;7.10;1.00
14924;DHT22;7554;43.600;1.480;2023-02-28T16:10:13;7.00;1.00
14924;DHT22;7554;43.600;1.480;2023-02-28T16:12:41;6.90;1.00
14924;DHT22;7554;43.600;1.480;2023-02-28T16:15:18;6.90;1.00
14924;DHT22;7554;43.600;1.480;2023-02-28T16:17:45;6.90;1.00
14924;DHT22;7554;43.600;1.480;2023-02-28T16:20:14;7.00;1.00
14924;DHT22;7554;43.600;1.480;2023-02-28T16:22:42;7.10;1.00
14924;DHT22;7554;43.600;1.480;2023-02-28T16:25:13;6.90;1.00
14924;DHT22;7554;43.600;1.480;2023-02-28T16:27:42;6.90;1.00
14924;DHT22;7554;43.600;1.480;2023-02-28T16:30:17;6.80;1.00
14924;DHT22;7554;43.600;1.480;2023-02-28T16:32:46;6.70;1.00
14924;DHT22;7554;43.600;1.480;2023-02-28T16:35:13;6.60;1.00
14924;DHT22;7554;43.600;1.480;2023-02-28T16:37:49;6.60;1.00
14924;DHT22;7554;43.600;1.480;2023-02-28T16:40:20;6.50;1.00
14924;DHT22;7554;43.600;1.480;2023-02-28T16:42:49;6.30;1.00
14924;DHT22;7554;43.600;1.480;2023-02-28T16:45:20;6.40;1.00
14924;DHT22;7554;43.600;1.480;2023-02-28T16:47:48;6.30;1.00
14924;DHT22;7554;43.600;1.480;2023-02-28T16:50:18;6.30;1.00
14924;DHT22;7554;43.600;1.480;2023-02-28T16:52:46;6.40;1.00
14924;DHT22;7554;43.600;1.480;2023-02-28T16:55:14;6.30;1.00
14924;DHT22;7554;43.600;1.480;2023-02-28T16:57:50;6.20;1.00
14924;DHT22;7554;43.600;1.480;2023-02-28T17:00:18;6.20;1.00
14924;DHT22;7554;43.600;1.480;2023-02-28T17:02:46;6.30;1.00
14924;DHT22;7554;43.600;1.480;2023-02-28T17:05:14;6.20;1.00
14924;DHT22;7554;43.600;1.480;2023-02-28T17:07:43;6.10;1.00
14924;DHT22;7554;43.600;1.480;2023-02-28T17:10:14;6.10;1.00